createdAt,value
2023-04-03T00:01:47.956Z,96125.66
2023-04-03T00:04:24.164Z,96128.91
2023-04-03T00:06:53.540Z,96116.84
2023-04-03T00:09:23.016Z,96120.50
2023-04-03T00:11:52.437Z,96124.38
2023-04-03T00:14:22.579Z,96123.56
2023-04-03T00:16:52.043Z,96121.31
2023-04-03T00:19:23.166Z,96121.91
2023-04-03T00:21:54.420Z,96122.13
2023-04-03T00:24:23.837Z,96113.97
2023-04-03T00:26:53.359Z,96115.22
2023-04-03T00:29:23.023Z,96114.59
2023-04-03T00:31:52.437Z,96119.69
2023-04-03T00:34:23.165Z,96107.44
2023-04-03T00:36:53.546Z,96113.78
2023-04-03T00:39:22.987Z,96111.75
2023-04-03T00:41:52.492Z,96119.06
2023-04-03T00:45:27.781Z,96112.31
2023-04-03T00:47:57.843Z,96109.47
2023-04-03T00:50:29.440Z,96106.81
2023-04-03T00:52:59.893Z,96105.38
2023-04-03T00:55:29.729Z,96112.94
2023-04-03T00:57:59.678Z,96106.00
2023-04-03T01:00:29.392Z,96112.53
2023-04-03T01:02:59.157Z,96118.66
2023-04-03T01:05:31.087Z,96115.81
2023-04-03T01:08:02.868Z,96115.81
2023-04-03T01:10:32.922Z,96116.63
2023-04-03T01:13:02.933Z,96113.53
2023-04-03T01:15:35.924Z,96114.56
2023-04-03T01:18:08.530Z,96120.69
2023-04-03T01:21:52.349Z,96115.75
2023-04-03T01:24:37.152Z,96123.72
2023-04-03T01:27:12.987Z,96117.78
2023-04-03T01:29:44.485Z,96116.59
2023-04-03T01:32:15.791Z,96114.75
2023-04-03T01:34:45.618Z,96120.06
2023-04-03T01:37:15.487Z,96118.19
2023-04-03T01:39:44.952Z,96122.25
2023-04-03T01:42:14.407Z,96115.94
2023-04-03T01:44:46.817Z,96116.34
2023-04-03T01:47:17.640Z,96119.19
2023-04-03T01:49:47.197Z,96116.56
2023-04-03T01:52:16.679Z,96115.94
2023-04-03T01:54:46.093Z,96117.13
2023-04-03T01:57:16.153Z,96112.41
2023-04-03T01:59:45.866Z,96108.13
2023-04-03T02:02:16.789Z,96111.59
2023-04-03T02:04:46.267Z,96111.41
2023-04-03T02:07:15.769Z,96108.13
2023-04-03T02:09:45.215Z,96117.09
2023-04-03T02:12:14.619Z,96108.56
2023-04-03T02:14:44.020Z,96110.38
2023-04-03T02:17:16.022Z,96111.19
2023-04-03T02:19:46.819Z,96106.72
2023-04-03T02:22:16.401Z,96107.75
2023-04-03T02:24:45.863Z,96109.56
2023-04-03T02:27:16.020Z,96107.75
2023-04-03T02:29:45.508Z,96114.25
2023-04-03T02:32:15.075Z,96108.94
2023-04-03T02:34:46.074Z,96103.47
2023-04-03T02:37:17.561Z,96107.75
2023-04-03T02:39:49.211Z,96105.53
2023-04-03T02:42:18.663Z,96107.16
2023-04-03T02:44:48.103Z,96110.19
2023-04-03T02:47:17.844Z,96109.38
2023-04-03T02:49:48.660Z,96117.13
2023-04-03T02:52:18.392Z,96110.81
2023-04-03T02:54:47.920Z,96108.78
2023-04-03T02:57:17.509Z,96115.31
2023-04-03T02:59:46.930Z,96107.34
2023-04-03T03:02:16.618Z,96115.94
2023-04-03T03:04:46.134Z,96109.81
2023-04-03T03:07:17.097Z,96105.53
2023-04-03T03:09:46.574Z,96106.34
2023-04-03T03:12:16.200Z,96112.25
2023-04-03T03:14:45.628Z,96113.91
2023-04-03T03:17:15.017Z,96112.06
2023-04-03T03:19:44.592Z,96107.97
2023-04-03T03:22:14.067Z,96108.59
2023-04-03T03:24:44.849Z,96108.59
2023-04-03T03:27:14.282Z,96107.59
2023-04-03T03:29:43.689Z,96113.69
2023-04-03T03:32:13.584Z,96111.25
2023-04-03T03:34:42.976Z,96115.53
2023-04-03T03:37:12.384Z,96119.00
2023-04-03T03:39:41.909Z,96116.34
2023-04-03T03:42:12.649Z,96117.16
2023-04-03T03:44:42.084Z,96113.50
2023-04-03T03:47:12.028Z,96118.63
2023-04-03T03:49:41.812Z,96113.50
2023-04-03T03:52:11.951Z,96120.44
2023-04-03T03:54:41.480Z,96113.50
2023-04-03T03:57:12.410Z,96116.97
2023-04-03T03:59:42.784Z,96114.53
2023-04-03T04:02:13.113Z,96113.69
2023-04-03T04:04:42.638Z,96118.63
2023-04-03T04:07:12.586Z,96113.31
2023-04-03T04:09:42.203Z,96116.78
2023-04-03T04:12:13.913Z,96115.75
2023-04-03T04:14:43.479Z,96110.06
2023-04-03T04:17:13.127Z,96111.31
2023-04-03T04:19:42.881Z,96117.81
2023-04-03T04:22:12.475Z,96119.03
2023-04-03T04:24:41.876Z,96118.03
2023-04-03T04:27:13.372Z,96111.09
2023-04-03T04:29:43.061Z,96116.38
2023-04-03T04:32:12.900Z,96126.38
2023-04-03T04:34:42.436Z,96120.25
2023-04-03T04:37:12.113Z,96116.78
2023-04-03T04:39:41.593Z,96120.25
2023-04-03T04:42:15.125Z,96119.44
2023-04-03T04:44:47.817Z,96118.41
2023-04-03T04:47:18.431Z,96124.72
2023-04-03T04:49:48.932Z,96121.25
2023-04-03T04:52:18.692Z,96123.09
2023-04-03T04:54:48.313Z,96128.41
2023-04-03T04:57:19.278Z,96123.09
2023-04-03T04:59:50.170Z,96130.63
2023-04-03T05:02:19.745Z,96123.50
2023-04-03T05:04:51.220Z,96122.47
2023-04-03T05:07:24.785Z,96125.31
2023-04-03T05:09:54.509Z,96128.16
2023-04-03T05:12:25.606Z,96133.66
2023-04-03T05:14:59.871Z,96132.84
2023-04-03T05:17:30.974Z,96132.84
2023-04-03T05:20:01.490Z,96144.28
2023-04-03T05:22:32.031Z,96141.44
2023-04-03T05:25:09.107Z,96138.97
2023-04-03T05:27:40.242Z,96142.25
2023-04-03T05:30:11.422Z,96143.88
2023-04-03T05:32:43.565Z,96135.53
2023-04-03T05:35:21.086Z,96140.84
2023-04-03T05:37:53.829Z,96145.53
2023-04-03T05:40:23.883Z,96149.81
2023-04-03T05:42:56.980Z,96149.00
2023-04-03T05:45:28.802Z,96149.63
2023-04-03T05:47:58.829Z,96146.16
2023-04-03T05:50:28.484Z,96145.75
2023-04-03T05:53:01.384Z,96149.84
2023-04-03T05:55:33.097Z,96147.19
2023-04-03T05:58:04.080Z,96148.00
2023-04-03T06:00:33.624Z,96149.66
2023-04-03T06:03:06.282Z,96147.81
2023-04-03T06:05:36.330Z,96158.03
2023-04-03T06:08:06.748Z,96153.56
2023-04-03T06:10:36.765Z,96159.44
2023-04-03T06:13:08.137Z,96148.63
2023-04-03T06:15:37.904Z,96156.41
2023-04-03T06:18:07.854Z,96151.91
2023-04-03T06:20:38.460Z,96152.34
2023-04-03T06:23:08.672Z,96160.09
2023-04-03T06:25:38.183Z,96154.19
2023-04-03T06:28:11.156Z,96164.00
2023-04-03T06:30:40.934Z,96161.53
2023-04-03T06:33:10.433Z,96160.34
2023-04-03T06:35:39.902Z,96163.59
2023-04-03T06:38:10.505Z,96166.88
2023-04-03T06:40:41.204Z,96164.44
2023-04-03T06:43:12.123Z,96167.31
2023-04-03T06:45:41.512Z,96162.41
2023-04-03T06:48:12.628Z,96164.47
2023-04-03T06:50:42.181Z,96167.56
2023-04-03T06:53:13.088Z,96162.66
2023-04-03T06:55:43.259Z,96166.16
2023-04-03T06:58:14.612Z,96169.22
2023-04-03T07:00:44.334Z,96173.09
2023-04-03T07:03:13.725Z,96173.53
2023-04-03T07:05:45.485Z,96173.94
2023-04-03T07:08:14.874Z,96173.34
2023-04-03T07:10:44.246Z,96172.94
2023-04-03T07:13:15.031Z,96185.81
2023-04-03T07:15:45.095Z,96180.31
2023-04-03T07:18:14.715Z,96177.25
2023-04-03T07:20:44.172Z,96196.88
2023-04-03T07:23:13.869Z,96187.28
2023-04-03T07:25:46.122Z,96190.78
2023-04-03T07:28:18.931Z,96190.56
2023-04-03T07:30:51.693Z,96192.59
2023-04-03T07:33:24.856Z,96191.38
2023-04-03T07:35:54.440Z,96195.88
2023-04-03T07:38:24.198Z,96198.53
2023-04-03T07:40:54.543Z,96200.78
2023-04-03T07:43:27.057Z,96202.81
2023-04-03T07:45:56.732Z,96204.66
2023-04-03T07:48:28.436Z,96211.63
2023-04-03T07:51:02.736Z,96212.63
2023-04-03T07:53:33.473Z,96208.34
2023-04-03T07:56:03.767Z,96216.13
2023-04-03T07:58:34.975Z,96210.78
2023-04-03T08:01:05.040Z,96216.53
2023-04-03T08:03:34.594Z,96221.84
2023-04-03T08:06:11.792Z,96220.63
2023-04-03T08:08:44.913Z,96228.56
2023-04-03T08:11:14.687Z,96226.72
2023-04-03T08:13:45.463Z,96219.38
2023-04-03T08:16:19.707Z,96223.84
2023-04-03T08:18:49.346Z,96221.00
2023-04-03T08:21:19.592Z,96221.59
2023-04-03T08:23:52.210Z,96228.53
2023-04-03T08:26:23.926Z,96226.69
2023-04-03T08:28:54.757Z,96223.19
2023-04-03T08:31:24.221Z,96227.91
2023-04-03T08:33:53.779Z,96228.72
2023-04-03T08:36:27.531Z,96227.69
2023-04-03T08:38:59.350Z,96228.53
2023-04-03T08:41:36.638Z,96225.84
2023-04-03T08:44:33.884Z,96233.81
2023-04-03T08:47:26.332Z,96231.31
2023-04-03T08:50:00.499Z,96228.25
2023-04-03T08:52:43.899Z,96228.66
2023-04-03T08:55:26.202Z,96232.94
2023-04-03T08:58:04.141Z,96230.69
2023-04-03T09:00:46.524Z,96224.25
2023-04-03T09:03:19.881Z,96225.50
2023-04-03T09:05:56.007Z,96228.13
2023-04-03T09:08:29.819Z,96237.75
2023-04-03T09:11:17.712Z,96230.19
2023-04-03T09:13:56.968Z,96226.09
2023-04-03T09:16:42.393Z,96227.53
2023-04-03T09:19:27.397Z,96234.28
2023-04-03T09:21:59.393Z,96229.44
2023-04-03T09:24:30.300Z,96228.22
2023-04-03T09:27:06.703Z,96231.31
2023-04-03T09:29:41.875Z,96223.31
2023-04-03T09:32:28.537Z,96231.09
2023-04-03T09:35:09.645Z,96228.44
2023-04-03T09:37:49.120Z,96230.47
2023-04-03T09:40:39.636Z,96234.97
2023-04-03T09:43:40.643Z,96226.56
2023-04-03T09:46:30.580Z,96221.66
2023-04-03T09:49:09.318Z,96223.22
2023-04-03T09:51:40.083Z,96229.53
2023-04-03T09:54:41.712Z,96229.03
2023-04-03T09:57:14.810Z,96220.00
2023-04-03T09:59:50.336Z,96223.25
2023-04-03T10:02:38.343Z,96228.38
2023-04-03T10:05:36.024Z,96220.19
2023-04-03T10:08:24.888Z,96224.72
2023-04-03T10:11:26.035Z,96219.56
2023-04-03T10:14:00.388Z,96222.03
2023-04-03T10:16:40.303Z,96222.44
2023-04-03T10:19:38.713Z,96217.56
2023-04-03T10:22:22.745Z,96224.63
2023-04-03T10:25:04.985Z,96226.91
2023-04-03T10:27:55.883Z,96217.56
2023-04-03T10:30:45.457Z,96223.72
2023-04-03T10:33:47.943Z,96219.84
2023-04-03T10:36:39.573Z,96224.13
2023-04-03T10:39:27.427Z,96218.19
2023-04-03T10:42:15.741Z,96210.59
2023-04-03T10:45:23.397Z,96217.34
2023-04-03T10:48:06.628Z,96219.81
2023-04-03T10:50:46.631Z,96222.69
2023-04-03T10:53:28.047Z,96215.97
2023-04-03T10:56:11.401Z,96229.72
2023-04-03T10:58:46.640Z,96230.97
2023-04-03T11:01:22.269Z,96225.91
2023-04-03T11:03:56.742Z,96235.72
2023-04-03T11:06:34.108Z,96230.00
2023-04-03T11:09:10.088Z,96224.69
2023-04-03T11:11:44.110Z,96225.50
2023-04-03T11:14:24.450Z,96222.44
2023-04-03T11:17:14.240Z,96220.78
2023-04-03T11:19:53.714Z,96209.94
2023-04-03T11:22:29.513Z,96212.78
2023-04-03T11:25:12.581Z,96209.91
2023-04-03T11:27:48.646Z,96208.44
2023-04-03T11:30:23.465Z,96198.38
2023-04-03T11:33:35.253Z,96200.78
2023-04-03T11:36:24.824Z,96200.34
2023-04-03T11:38:59.080Z,96196.16
2023-04-03T11:41:32.203Z,96198.72
2023-04-03T11:44:08.271Z,96195.59
2023-04-03T11:46:57.273Z,96191.31
2023-04-03T11:50:09.720Z,96185.22
2023-04-03T11:53:03.961Z,96182.78
2023-04-03T11:56:08.309Z,96186.84
2023-04-03T11:58:38.088Z,96189.34
2023-04-03T12:01:12.230Z,96189.91
2023-04-03T12:04:15.356Z,96194.31
2023-04-03T12:07:16.101Z,96202.13
2023-04-03T12:10:31.162Z,96200.16
2023-04-03T12:13:05.312Z,96196.00
2023-04-03T12:15:58.102Z,96190.38
2023-04-03T12:19:03.766Z,96189.41
2023-04-03T12:22:20.229Z,96179.91
2023-04-03T12:24:52.762Z,96176.19
2023-04-03T12:27:42.912Z,96177.94
2023-04-03T12:30:23.877Z,96172.81
2023-04-03T12:33:22.609Z,96182.06
2023-04-03T12:36:09.089Z,96177.66
2023-04-03T12:39:15.377Z,96175.81
2023-04-03T12:41:56.125Z,96172.84
2023-04-03T12:44:56.117Z,96162.00
2023-04-03T12:47:33.882Z,96154.59
2023-04-03T12:50:06.096Z,96165.50
2023-04-03T12:52:44.060Z,96147.22
2023-04-03T12:55:18.903Z,96157.94
2023-04-03T12:57:49.039Z,96149.00
2023-04-03T13:00:35.612Z,96146.31
2023-04-03T13:03:09.287Z,96144.50
2023-04-03T13:05:39.000Z,96149.03
2023-04-03T13:08:16.912Z,96149.56
2023-04-03T13:10:59.165Z,96147.09
2023-04-03T13:13:28.906Z,96148.78
2023-04-03T13:15:58.766Z,96149.16
2023-04-03T13:18:33.944Z,96146.03
2023-04-03T13:21:09.089Z,96146.53
2023-04-03T13:23:46.373Z,96142.72
2023-04-03T13:26:19.608Z,96137.56
2023-04-03T13:28:52.432Z,96145.72
2023-04-03T13:31:30.049Z,96137.59
2023-04-03T13:34:06.774Z,96131.56
2023-04-03T13:36:39.281Z,96131.91
2023-04-03T13:39:25.930Z,96124.19
2023-04-03T13:41:57.910Z,96124.63
2023-04-03T13:44:36.704Z,96122.44
2023-04-03T13:47:21.760Z,96123.72
2023-04-03T13:50:06.878Z,96127.00
2023-04-03T13:52:44.530Z,96126.19
2023-04-03T13:55:26.734Z,96132.50
2023-04-03T13:58:00.721Z,96125.03
2023-04-03T14:00:40.658Z,96120.81
2023-04-03T14:03:21.385Z,96127.84
2023-04-03T14:05:51.553Z,96123.16
2023-04-03T14:08:29.298Z,96125.50
2023-04-03T14:11:07.178Z,96124.19
2023-04-03T14:13:36.775Z,96121.00
2023-04-03T14:16:15.407Z,96124.63
2023-04-03T14:18:46.663Z,96122.56
2023-04-03T14:21:20.899Z,96119.41
2023-04-03T14:23:52.313Z,96123.00
2023-04-03T14:26:27.416Z,96109.63
2023-04-03T14:28:57.495Z,96118.59
2023-04-03T14:31:27.579Z,96116.34
2023-04-03T14:33:57.106Z,96117.59
2023-04-03T14:36:30.158Z,96114.31
2023-04-03T14:39:01.776Z,96109.13
2023-04-03T14:41:32.686Z,96115.44
2023-04-03T14:44:02.204Z,96108.47
2023-04-03T14:46:54.484Z,96109.28
2023-04-03T14:49:32.040Z,96103.72
2023-04-03T14:52:01.495Z,96103.13
2023-04-03T14:54:31.360Z,96106.56
2023-04-03T14:57:03.384Z,96114.56
2023-04-03T14:59:33.633Z,96109.06
2023-04-03T15:02:03.179Z,96110.44
2023-04-03T15:04:32.741Z,96106.72
2023-04-03T15:07:02.249Z,96107.66
2023-04-03T15:09:31.670Z,96107.81
2023-04-03T15:12:02.406Z,96110.47
2023-04-03T15:14:37.460Z,96114.75
2023-04-03T15:17:22.343Z,96104.34
2023-04-03T15:19:51.760Z,96101.84
2023-04-03T15:22:22.316Z,96105.28
2023-04-03T15:24:51.862Z,96104.84
2023-04-03T15:27:22.819Z,96104.25
2023-04-03T15:29:52.199Z,96101.41
2023-04-03T15:32:21.588Z,96093.09
2023-04-03T15:34:52.686Z,96094.38
2023-04-03T15:37:23.068Z,96091.78
2023-04-03T15:39:52.492Z,96088.06
2023-04-03T15:42:23.371Z,96092.31
2023-04-03T15:44:52.897Z,96090.16
2023-04-03T15:47:22.441Z,96084.03
2023-04-03T15:49:51.920Z,96089.69
2023-04-03T15:52:21.485Z,96082.25
2023-04-03T15:54:51.179Z,96085.66
2023-04-03T15:57:26.906Z,96094.00
2023-04-03T15:59:57.481Z,96092.31
2023-04-03T16:02:28.197Z,96099.31
2023-04-03T16:04:57.982Z,96109.53
2023-04-03T16:07:27.418Z,96105.53
2023-04-03T16:09:56.983Z,96117.47
2023-04-03T16:12:27.814Z,96119.81
2023-04-03T16:14:57.233Z,96125.22
2023-04-03T16:17:27.879Z,96118.88
2023-04-03T16:19:57.986Z,96120.00
2023-04-03T16:22:29.743Z,96121.47
2023-04-03T16:24:59.305Z,96126.59
2023-04-03T16:27:31.851Z,96124.56
2023-04-03T16:30:01.433Z,96122.09
2023-04-03T16:32:33.184Z,96131.16
2023-04-03T16:35:03.250Z,96123.00
2023-04-03T16:37:33.207Z,96136.91
2023-04-03T16:40:03.951Z,96131.31
2023-04-03T16:42:37.333Z,96138.28
2023-04-03T16:45:10.089Z,96137.31
2023-04-03T16:47:39.642Z,96141.34
2023-04-03T16:50:11.005Z,96145.00
2023-04-03T16:52:40.773Z,96137.13
2023-04-03T16:55:11.181Z,96145.41
2023-04-03T16:57:41.895Z,96144.72
2023-04-03T17:00:13.414Z,96153.56
2023-04-03T17:02:42.933Z,96145.44
2023-04-03T17:05:12.373Z,96152.94
2023-04-03T17:07:41.780Z,96152.41
2023-04-03T17:10:13.015Z,96159.47
2023-04-03T17:12:43.898Z,96152.34
2023-04-03T17:15:13.980Z,96168.56
2023-04-03T17:17:43.807Z,96161.84
2023-04-03T17:20:14.094Z,96158.63
2023-04-03T17:22:43.567Z,96166.41
2023-04-03T17:25:14.118Z,96164.22
2023-04-03T17:27:44.946Z,96163.63
2023-04-03T17:30:14.882Z,96174.91
2023-04-03T17:32:44.381Z,96163.25
2023-04-03T17:35:13.782Z,96170.44
2023-04-03T17:37:43.175Z,96174.13
2023-04-03T17:40:14.908Z,96173.94
2023-04-03T17:42:45.790Z,96177.63
2023-04-03T17:45:15.432Z,96176.22
2023-04-03T17:47:46.513Z,96183.41
2023-04-03T17:50:16.564Z,96180.13
2023-04-03T17:52:45.996Z,96180.31
2023-04-03T17:55:17.520Z,96179.53
2023-04-03T17:57:48.284Z,96181.78
2023-04-03T18:00:19.666Z,96184.84
2023-04-03T18:02:49.080Z,96186.66
2023-04-03T18:05:18.794Z,96188.94
2023-04-03T18:07:49.510Z,96188.09
2023-04-03T18:10:19.000Z,96190.34
2023-04-03T18:12:49.762Z,96197.06
2023-04-03T18:15:19.591Z,96201.97
2023-04-03T18:17:50.401Z,96193.78
2023-04-03T18:20:20.093Z,96197.06
2023-04-03T18:22:51.603Z,96200.94
2023-04-03T18:25:21.400Z,96199.91
2023-04-03T18:27:53.173Z,96199.06
2023-04-03T18:30:26.419Z,96206.59
2023-04-03T18:32:55.722Z,96199.22
2023-04-03T18:35:25.237Z,96204.16
2023-04-03T18:37:54.739Z,96209.66
2023-04-03T18:40:24.184Z,96205.56
2023-04-03T18:42:54.941Z,96214.72
2023-04-03T18:45:25.072Z,96207.16
2023-04-03T18:47:54.870Z,96218.19
2023-04-03T18:50:24.385Z,96211.44
2023-04-03T18:52:54.085Z,96216.13
2023-04-03T18:55:23.539Z,96215.50
2023-04-03T18:57:54.287Z,96221.38
2023-04-03T19:00:23.894Z,96218.13
2023-04-03T19:02:53.662Z,96211.19
2023-04-03T19:05:23.878Z,96217.72
2023-04-03T19:07:54.547Z,96219.75
2023-04-03T19:10:24.033Z,96219.13
2023-04-03T19:12:54.946Z,96214.00
2023-04-03T19:15:26.209Z,96222.97
2023-04-03T19:17:55.701Z,96214.41
2023-04-03T19:20:25.500Z,96217.25
2023-04-03T19:22:55.221Z,96213.34
2023-04-03T19:25:25.211Z,96212.91
2023-04-03T19:27:56.020Z,96219.44
2023-04-03T19:30:25.666Z,96226.16
2023-04-03T19:32:56.614Z,96214.75
2023-04-03T19:35:26.101Z,96232.25
2023-04-03T19:37:55.516Z,96232.00
2023-04-03T19:40:25.426Z,96225.88
2023-04-03T19:42:56.222Z,96238.06
2023-04-03T19:45:26.338Z,96233.34
2023-04-03T19:47:55.891Z,96235.16
2023-04-03T19:50:25.316Z,96237.19
2023-04-03T19:52:54.767Z,96236.94
2023-04-03T19:55:24.252Z,96231.00
2023-04-03T19:57:55.122Z,96238.53
2023-04-03T20:00:24.712Z,96247.25
2023-04-03T20:02:54.273Z,96247.63
2023-04-03T20:05:24.936Z,96242.91
2023-04-03T20:07:54.339Z,96245.94
2023-04-03T20:10:27.252Z,96250.38
2023-04-03T20:12:58.320Z,96246.72
2023-04-03T20:15:30.070Z,96240.97
2023-04-03T20:17:59.699Z,96245.81
2023-04-03T20:20:29.444Z,96247.41
2023-04-03T20:22:59.215Z,96246.16
2023-04-03T20:25:46.104Z,96246.72
2023-04-03T20:28:19.865Z,96245.09
2023-04-03T20:30:51.783Z,96246.66
2023-04-03T20:33:22.168Z,96240.94
2023-04-03T20:35:52.318Z,96243.13
2023-04-03T20:38:22.218Z,96246.97
2023-04-03T20:40:52.160Z,96249.34
2023-04-03T20:43:23.651Z,96249.75
2023-04-03T20:45:53.636Z,96257.25
2023-04-03T20:48:23.584Z,96248.50
2023-04-03T20:50:53.232Z,96248.88
2023-04-03T20:53:23.130Z,96245.97
2023-04-03T20:56:00.011Z,96250.81
2023-04-03T20:58:33.038Z,96246.88
2023-04-03T21:01:02.885Z,96246.44
2023-04-03T21:03:32.502Z,96248.03
2023-04-03T21:06:01.782Z,96243.09
2023-04-03T21:09:45.952Z,96243.47
2023-04-03T21:13:31.456Z,96238.56
2023-04-03T21:16:00.646Z,96239.75
2023-04-03T21:19:10.564Z,96244.41
2023-04-03T21:21:40.656Z,96237.19
2023-04-03T21:24:11.217Z,96241.25
2023-04-03T21:26:42.394Z,96242.63
2023-04-03T21:29:12.748Z,96241.34
2023-04-03T21:31:57.898Z,96243.72
2023-04-03T21:34:30.936Z,96244.09
2023-04-03T21:37:05.547Z,96247.44
2023-04-03T21:39:36.147Z,96246.63
2023-04-03T21:42:05.759Z,96237.06
2023-04-03T21:44:35.170Z,96241.09
2023-04-03T21:47:05.036Z,96253.50
2023-04-03T21:49:35.761Z,96246.75
2023-04-03T21:52:05.385Z,96250.59
2023-04-03T21:54:34.739Z,96242.19
2023-04-03T21:57:04.459Z,96249.31
2023-04-03T21:59:33.966Z,96244.38
2023-04-03T22:02:03.790Z,96244.75
2023-04-03T22:04:33.227Z,96249.38
2023-04-03T22:07:04.257Z,96244.28
2023-04-03T22:09:33.662Z,96243.47
2023-04-03T22:12:04.720Z,96239.16
2023-04-03T22:14:34.097Z,96242.81
2023-04-03T22:17:03.840Z,96243.63
2023-04-03T22:19:33.270Z,96235.06
2023-04-03T22:22:03.993Z,96236.88
2023-04-03T22:24:33.416Z,96236.72
2023-04-03T22:27:02.823Z,96240.19
2023-04-03T22:29:32.227Z,96235.72
2023-04-03T22:32:01.854Z,96233.06
2023-04-03T22:34:31.997Z,96236.34
2023-04-03T22:37:02.948Z,96238.34
2023-04-03T22:39:32.505Z,96236.06
2023-04-03T22:42:02.033Z,96232.81
2023-04-03T22:44:36.262Z,96233.81
2023-04-03T22:47:06.160Z,96229.53
2023-04-03T22:49:35.572Z,96231.53
2023-04-03T22:52:06.597Z,96237.19
2023-04-03T22:54:35.989Z,96227.78
2023-04-03T22:57:05.811Z,96234.09
2023-04-03T22:59:35.279Z,96235.91
2023-04-03T23:02:04.697Z,96236.25
2023-04-03T23:04:34.154Z,96233.97
2023-04-03T23:07:05.226Z,96235.97
2023-04-03T23:09:34.653Z,96234.50
2023-04-03T23:12:04.072Z,96239.34
2023-04-03T23:14:33.454Z,96232.63
2023-04-03T23:17:05.655Z,96230.53
2023-04-03T23:19:35.349Z,96230.69
2023-04-03T23:22:06.369Z,96230.22
2023-04-03T23:24:37.520Z,96226.13
2023-04-03T23:27:07.581Z,96229.94
2023-04-03T23:29:37.224Z,96227.47
2023-04-03T23:32:07.607Z,96229.31
2023-04-03T23:34:37.119Z,96224.56
2023-04-03T23:37:08.807Z,96230.19
2023-04-03T23:39:38.218Z,96232.19
2023-04-03T23:42:10.700Z,96226.28
2023-04-03T23:44:40.120Z,96228.47
2023-04-03T23:47:09.507Z,96221.53
2023-04-03T23:49:38.953Z,96222.53
2023-04-03T23:52:09.755Z,96228.81
2023-04-03T23:54:39.253Z,96221.25
2023-04-03T23:57:08.697Z,96223.06
2023-04-03T23:59:38.059Z,96218.16
